< < Back
Terminal Aerodrome Forecast


Current Version              Previous Versions:   1  2  3  4  5  6  7  8  9  

Terminal Aerodrome Forecast

244
FTUS42 KGSP 241130
TAFGSP
TAF
KGSP 241130Z 2412/2512 34003KT P6SM SCT180 BKN250
     FM241400 05003KT P6SM SCT170
     FM241700 21003KT P6SM SCT160
     FM250000 00000KT P6SM SKC=



Latest METAR

210
SAUS70 KWBC 241600 RRA
MTRGSP
METAR KGSP 241553Z 17003KT 10SM CLR 16/06 A3008 RMK AO2 SLP181
T01610056


USA.gov is the U.S. government's official web portal to all federal, state and local government web resources and services.